createdAt,value
2022-10-25T00:01:08.632Z,119.82
2022-10-25T00:03:53.737Z,127.55
2022-10-25T00:06:32.297Z,134.52
2022-10-25T00:09:10.687Z,124.18
2022-10-25T00:11:43.358Z,117.43
2022-10-25T00:14:23.760Z,136.57
2022-10-25T00:16:58.426Z,117.80
2022-10-25T00:19:39.971Z,114.40
2022-10-25T00:22:27.083Z,120.75
2022-10-25T00:25:10.580Z,113.75
2022-10-25T00:27:48.226Z,131.55
2022-10-25T00:30:26.592Z,127.65
2022-10-25T00:33:04.409Z,136.20
2022-10-25T00:35:44.229Z,135.40
2022-10-25T00:38:28.215Z,137.05
2022-10-25T00:41:06.626Z,142.43
2022-10-25T00:44:03.908Z,125.20
2022-10-25T00:46:41.678Z,131.85
2022-10-25T00:49:28.861Z,145.27
2022-10-25T00:52:17.700Z,145.32
2022-10-25T00:54:59.021Z,129.38
2022-10-25T00:57:45.027Z,144.65
2022-10-25T01:00:25.702Z,150.80
2022-10-25T01:03:05.000Z,138.63
2022-10-25T01:05:55.611Z,151.13
2022-10-25T01:08:43.853Z,151.00
2022-10-25T01:11:27.246Z,163.20
2022-10-25T01:14:14.033Z,159.40
2022-10-25T01:17:01.400Z,163.20
2022-10-25T01:20:16.367Z,160.27
2022-10-25T01:23:29.883Z,176.68
2022-10-25T01:27:03.245Z,164.90
2022-10-25T01:29:59.413Z,148.95
2022-10-25T01:33:10.518Z,154.93
2022-10-25T01:36:00.610Z,166.52
2022-10-25T01:38:36.279Z,149.73
2022-10-25T01:41:27.062Z,145.90
2022-10-25T01:44:17.674Z,151.65
2022-10-25T01:47:29.522Z,159.32
2022-10-25T01:50:46.796Z,165.68
2022-10-25T01:53:34.830Z,164.38
2022-10-25T01:56:12.023Z,165.20
2022-10-25T01:59:12.903Z,164.02
2022-10-25T02:02:25.998Z,161.73
2022-10-25T02:05:06.503Z,151.27
2022-10-25T02:08:12.452Z,173.90
2022-10-25T02:11:07.857Z,146.57
2022-10-25T02:14:08.668Z,146.55
2022-10-25T02:16:49.996Z,141.35
2022-10-25T02:19:41.487Z,137.00
2022-10-25T02:22:18.233Z,147.77
2022-10-25T02:25:12.793Z,140.68
2022-10-25T02:27:52.974Z,143.55
2022-10-25T02:30:35.716Z,142.95
2022-10-25T02:33:16.611Z,124.88
2022-10-25T02:36:18.012Z,124.43
2022-10-25T02:39:01.682Z,131.35
2022-10-25T02:41:48.968Z,115.10
2022-10-25T02:44:32.454Z,125.88
2022-10-25T02:47:20.519Z,110.65
2022-10-25T02:49:52.838Z,109.95
2022-10-25T02:52:35.055Z,113.20
2022-10-25T02:55:21.891Z,97.38
2022-10-25T02:58:13.906Z,88.10
2022-10-25T03:00:49.509Z,90.80
2022-10-25T03:03:32.999Z,80.80
2022-10-25T03:06:04.666Z,86.53
2022-10-25T03:08:49.159Z,106.90
2022-10-25T03:11:19.012Z,89.65
2022-10-25T03:14:13.023Z,88.03
2022-10-25T03:16:50.811Z,91.25
2022-10-25T03:19:37.070Z,97.32
2022-10-25T03:22:24.081Z,98.53
2022-10-25T03:24:56.248Z,86.50
2022-10-25T03:27:36.910Z,93.25
2022-10-25T03:30:06.757Z,77.97
2022-10-25T03:32:52.784Z,83.28
2022-10-25T03:35:22.767Z,86.85
2022-10-25T03:37:51.125Z,93.25
2022-10-25T03:40:41.100Z,87.03
2022-10-25T03:43:11.161Z,107.95
2022-10-25T03:45:38.270Z,93.75
2022-10-25T03:48:14.986Z,93.63
2022-10-25T03:50:48.561Z,91.50
2022-10-25T03:53:33.561Z,95.07
2022-10-25T03:56:04.956Z,85.88
2022-10-25T03:58:31.721Z,92.25
2022-10-25T04:01:00.144Z,103.80
2022-10-25T04:03:38.718Z,102.05
2022-10-25T04:06:27.291Z,107.38
2022-10-25T04:09:08.722Z,103.93
2022-10-25T04:11:43.865Z,97.03
2022-10-25T04:17:22.051Z,92.78
2022-10-25T04:19:59.860Z,81.50
2022-10-25T04:25:25.697Z,82.55
2022-10-25T04:28:00.755Z,76.72
2022-10-25T04:30:54.141Z,79.60
2022-10-25T04:33:29.182Z,72.45
2022-10-25T04:36:11.058Z,79.40
2022-10-25T04:38:43.738Z,73.60
2022-10-25T04:41:27.355Z,61.83
2022-10-25T04:44:15.812Z,64.68
2022-10-25T04:46:47.893Z,59.13
2022-10-25T04:52:24.052Z,47.85
2022-10-25T04:54:59.447Z,49.60
2022-10-25T04:57:53.028Z,47.13
2022-10-25T05:00:42.942Z,47.60
2022-10-25T05:06:29.794Z,42.17
2022-10-25T05:09:10.038Z,40.80
2022-10-25T05:11:56.543Z,40.92
2022-10-25T05:14:39.790Z,40.17
2022-10-25T05:17:15.571Z,48.80
2022-10-25T05:20:11.046Z,41.08
2022-10-25T05:22:47.420Z,44.13
2022-10-25T05:25:39.313Z,50.72
2022-10-25T05:28:27.827Z,55.13
2022-10-25T05:31:24.165Z,50.58
2022-10-25T05:34:03.960Z,55.15
2022-10-25T05:36:39.140Z,57.53
2022-10-25T05:39:18.071Z,60.45
2022-10-25T05:41:56.047Z,63.15
2022-10-25T05:44:56.011Z,76.97
2022-10-25T05:47:42.840Z,77.50
2022-10-25T05:50:27.211Z,82.72
2022-10-25T05:53:06.096Z,85.40
2022-10-25T05:55:47.006Z,93.07
2022-10-25T05:58:33.024Z,86.97
2022-10-25T06:01:10.763Z,84.88
2022-10-25T06:04:01.068Z,79.07
2022-10-25T06:06:58.047Z,66.18
2022-10-25T06:09:33.071Z,70.47
2022-10-25T06:12:19.352Z,70.82
2022-10-25T06:14:58.287Z,64.90
2022-10-25T06:17:29.986Z,58.25
2022-10-25T06:20:07.867Z,53.35
2022-10-25T06:22:49.263Z,49.42
2022-10-25T06:25:28.014Z,48.42
2022-10-25T06:28:09.439Z,45.92
2022-10-25T06:30:50.163Z,46.15
2022-10-25T06:33:28.159Z,47.90
2022-10-25T06:36:14.787Z,45.33
2022-10-25T06:39:00.663Z,41.38
2022-10-25T06:41:44.279Z,42.00
2022-10-25T06:44:32.895Z,40.33
2022-10-25T06:47:17.646Z,37.97
2022-10-25T06:49:53.046Z,34.40
2022-10-25T06:52:35.008Z,34.08
2022-10-25T06:55:16.535Z,31.27
2022-10-25T06:57:49.438Z,33.08
2022-10-25T07:00:29.370Z,28.33
2022-10-25T07:03:30.076Z,24.27
2022-10-25T07:06:20.989Z,26.50
2022-10-25T07:09:04.974Z,26.58
2022-10-25T07:11:41.346Z,24.70
2022-10-25T07:14:16.010Z,26.58
2022-10-25T07:16:51.131Z,24.10
2022-10-25T07:19:23.188Z,24.58
2022-10-25T07:22:04.195Z,27.38
2022-10-25T07:24:50.939Z,27.23
2022-10-25T07:27:26.097Z,25.02
2022-10-25T07:30:06.676Z,23.48
2022-10-25T07:32:45.148Z,22.83
2022-10-25T07:35:28.804Z,24.90
2022-10-25T07:38:08.706Z,21.67
2022-10-25T07:40:47.044Z,26.00
2022-10-25T07:43:23.145Z,24.15
2022-10-25T07:46:13.874Z,26.23
2022-10-25T07:49:01.787Z,22.75
2022-10-25T07:51:49.052Z,24.13
2022-10-25T07:54:32.937Z,27.00
2022-10-25T07:57:15.817Z,27.23
2022-10-25T08:00:01.390Z,25.08
2022-10-25T08:02:47.026Z,31.02
2022-10-25T08:05:25.000Z,29.15
2022-10-25T08:08:08.735Z,21.63
2022-10-25T08:10:47.050Z,18.60
2022-10-25T08:13:36.454Z,18.77
2022-10-25T08:16:20.213Z,18.13
2022-10-25T08:19:06.014Z,17.55
2022-10-25T08:21:49.993Z,18.05
2022-10-25T08:24:36.006Z,12.82
2022-10-25T08:27:19.695Z,15.05
2022-10-25T08:29:57.502Z,12.38
2022-10-25T08:32:37.611Z,11.82
2022-10-25T08:35:23.828Z,16.58
2022-10-25T08:38:22.147Z,14.02
2022-10-25T08:41:14.490Z,14.48
2022-10-25T08:44:14.770Z,15.07
2022-10-25T08:47:12.061Z,14.63
2022-10-25T08:50:02.221Z,16.25
2022-10-25T08:52:55.936Z,15.07
2022-10-25T08:59:00.199Z,20.05
2022-10-25T09:01:53.136Z,17.60
2022-10-25T09:04:27.192Z,16.33
2022-10-25T09:07:17.945Z,18.48
2022-10-25T09:10:28.706Z,22.50
2022-10-25T09:13:10.657Z,17.25
2022-10-25T09:16:03.331Z,16.98
2022-10-25T09:18:55.028Z,18.63
2022-10-25T09:21:47.716Z,18.73
2022-10-25T09:24:39.065Z,18.63
2022-10-25T09:27:25.267Z,14.32
2022-10-25T09:30:14.149Z,19.05
2022-10-25T09:33:02.003Z,19.45
2022-10-25T09:35:53.549Z,19.67
2022-10-25T09:38:52.357Z,17.63
2022-10-25T09:41:56.949Z,16.25
2022-10-25T09:44:48.788Z,16.30
2022-10-25T09:47:48.271Z,15.48
2022-10-25T09:50:37.215Z,17.83
2022-10-25T09:53:30.334Z,18.85
2022-10-25T09:56:17.485Z,15.10
2022-10-25T09:59:01.260Z,15.25
2022-10-25T10:01:44.111Z,17.05
2022-10-25T10:04:36.648Z,14.82
2022-10-25T10:07:29.186Z,11.02
2022-10-25T10:10:17.719Z,11.82
2022-10-25T10:13:16.544Z,10.27
2022-10-25T10:16:09.652Z,11.25
2022-10-25T10:18:50.959Z,10.02
2022-10-25T10:21:28.332Z,11.73
2022-10-25T10:24:26.095Z,11.75
2022-10-25T10:27:00.999Z,7.30
2022-10-25T10:29:42.338Z,10.38
2022-10-25T10:32:36.243Z,9.25
2022-10-25T10:35:44.629Z,9.43
2022-10-25T10:38:37.874Z,8.88
2022-10-25T10:41:20.122Z,10.55
2022-10-25T10:44:15.891Z,11.80
2022-10-25T10:46:52.152Z,12.43
2022-10-25T10:49:43.249Z,9.52
2022-10-25T10:53:00.919Z,8.25
2022-10-25T10:55:55.560Z,13.70
2022-10-25T10:58:59.565Z,8.85
2022-10-25T11:01:42.923Z,9.30
2022-10-25T11:04:26.140Z,10.63
2022-10-25T11:07:43.825Z,9.57
2022-10-25T11:10:19.983Z,11.25
2022-10-25T11:13:23.799Z,8.80
2022-10-25T11:16:25.672Z,6.43
2022-10-25T11:19:31.093Z,5.28
2022-10-25T11:22:29.475Z,11.80
2022-10-25T11:25:34.633Z,5.05
2022-10-25T11:28:28.287Z,8.88
2022-10-25T11:31:37.704Z,6.32
2022-10-25T11:34:43.146Z,7.78
2022-10-25T11:37:46.579Z,6.50
2022-10-25T11:40:21.971Z,14.23
2022-10-25T11:43:08.983Z,9.60
2022-10-25T11:45:46.208Z,13.00
2022-10-25T11:48:52.943Z,7.13
2022-10-25T11:51:51.858Z,11.18
2022-10-25T11:54:47.061Z,8.77
2022-10-25T11:58:05.543Z,8.98
2022-10-25T12:01:30.979Z,7.28
2022-10-25T12:04:33.708Z,7.28
2022-10-25T12:07:51.989Z,6.38
2022-10-25T12:10:42.176Z,7.88
2022-10-25T12:13:47.711Z,9.85
2022-10-25T12:16:53.179Z,8.40
2022-10-25T12:19:46.380Z,7.63
2022-10-25T12:22:45.489Z,10.25
2022-10-25T12:25:33.871Z,9.98
2022-10-25T12:28:16.107Z,10.00
2022-10-25T12:31:13.023Z,10.15
2022-10-25T12:34:26.423Z,6.68
2022-10-25T12:37:06.201Z,9.65
2022-10-25T12:40:01.501Z,12.05
2022-10-25T12:42:58.683Z,7.13
2022-10-25T12:45:59.290Z,10.13
2022-10-25T12:48:48.563Z,7.68
2022-10-25T12:51:59.996Z,12.23
2022-10-25T12:55:02.992Z,7.57
2022-10-25T12:58:40.150Z,8.10
2022-10-25T13:01:36.998Z,6.72
2022-10-25T13:04:20.905Z,8.85
2022-10-25T13:06:58.968Z,7.38
2022-10-25T13:09:38.311Z,8.00
2022-10-25T13:12:30.635Z,6.25
2022-10-25T13:15:10.109Z,5.65
2022-10-25T13:18:22.219Z,6.70
2022-10-25T13:21:01.270Z,8.52
2022-10-25T13:24:03.073Z,6.28
2022-10-25T13:27:11.162Z,5.40
2022-10-25T13:30:19.457Z,5.68
2022-10-25T13:33:46.044Z,8.30
2022-10-25T13:37:18.574Z,5.65
2022-10-25T13:40:06.676Z,5.82
2022-10-25T13:42:38.571Z,5.00
2022-10-25T13:45:44.763Z,5.78
2022-10-25T13:48:33.931Z,5.57
2022-10-25T13:51:22.177Z,3.70
2022-10-25T13:54:14.377Z,5.78
2022-10-25T13:57:01.392Z,4.80
2022-10-25T13:59:56.852Z,4.32
2022-10-25T14:03:10.009Z,3.72
2022-10-25T14:05:58.077Z,3.35
2022-10-25T14:08:50.978Z,6.05
2022-10-25T14:11:42.818Z,3.17
2022-10-25T14:14:29.872Z,3.30
2022-10-25T14:17:38.450Z,5.82
2022-10-25T14:20:33.636Z,9.15
2022-10-25T14:23:37.034Z,8.68
2022-10-25T14:26:09.882Z,6.20
2022-10-25T14:28:59.364Z,3.00
2022-10-25T14:31:40.000Z,7.20
2022-10-25T14:34:25.536Z,8.80
2022-10-25T14:37:14.406Z,17.38
2022-10-25T14:40:32.025Z,4.15
2022-10-25T14:43:26.672Z,8.85
2022-10-25T14:46:14.160Z,6.72
2022-10-25T14:49:00.431Z,3.80
2022-10-25T14:51:58.437Z,6.78
2022-10-25T14:54:46.560Z,5.63
2022-10-25T14:57:37.293Z,2.75
2022-10-25T15:00:22.710Z,2.70
2022-10-25T15:03:02.898Z,6.70
2022-10-25T15:05:49.979Z,6.25
2022-10-25T15:08:38.501Z,4.00
2022-10-25T15:11:18.292Z,6.75
2022-10-25T15:14:02.757Z,4.03
2022-10-25T15:16:49.981Z,3.53
2022-10-25T15:19:28.513Z,3.08
2022-10-25T15:22:21.113Z,6.63
2022-10-25T15:25:10.887Z,5.18
2022-10-25T15:27:56.718Z,3.05
2022-10-25T15:31:23.682Z,11.93
2022-10-25T15:34:23.002Z,2.88
2022-10-25T15:37:02.539Z,2.58
2022-10-25T15:39:53.796Z,6.80
2022-10-25T15:42:35.072Z,4.85
2022-10-25T15:45:13.012Z,4.05
2022-10-25T15:47:56.566Z,3.47
2022-10-25T15:50:49.602Z,3.75
2022-10-25T15:53:36.539Z,2.33
2022-10-25T16:02:04.049Z,5.90
2022-10-25T16:04:49.060Z,7.80
2022-10-25T16:07:36.851Z,6.10
2022-10-25T16:10:25.579Z,6.55
2022-10-25T16:13:09.911Z,5.38
2022-10-25T16:15:57.284Z,3.35
2022-10-25T16:18:50.065Z,4.28
2022-10-25T16:21:51.008Z,7.53
2022-10-25T16:24:34.016Z,5.03
2022-10-25T16:27:27.226Z,5.43
2022-10-25T16:30:10.729Z,3.58
2022-10-25T16:32:55.866Z,4.13
2022-10-25T16:35:34.571Z,4.63
2022-10-25T16:38:19.412Z,4.00
2022-10-25T16:41:29.391Z,8.60
2022-10-25T16:44:18.466Z,58.97
2022-10-25T16:46:57.869Z,36.72
2022-10-25T16:50:03.594Z,20.35
2022-10-25T16:52:49.952Z,12.43
2022-10-25T16:55:39.491Z,8.52
2022-10-25T16:58:23.000Z,12.93
2022-10-25T17:01:07.009Z,12.82
2022-10-25T17:03:51.106Z,9.88
2022-10-25T17:09:48.056Z,10.32
2022-10-25T17:12:40.522Z,13.85
2022-10-25T17:15:16.662Z,13.93
2022-10-25T17:18:07.252Z,14.25
2022-10-25T17:20:57.083Z,14.48
2022-10-25T17:23:50.057Z,14.82
2022-10-25T17:26:33.042Z,17.35
2022-10-25T17:29:27.514Z,16.60
2022-10-25T17:32:14.105Z,18.95
2022-10-25T17:35:00.468Z,16.30
2022-10-25T17:40:54.516Z,20.60
2022-10-25T17:43:57.642Z,16.17
2022-10-25T17:49:30.991Z,15.93
2022-10-25T17:52:41.991Z,15.25
2022-10-25T17:55:51.895Z,20.67
2022-10-25T17:58:41.533Z,20.77
2022-10-25T18:01:27.442Z,22.48
2022-10-25T18:04:19.858Z,26.55
2022-10-25T18:07:05.366Z,31.63
2022-10-25T18:10:15.168Z,25.38
2022-10-25T18:13:25.295Z,21.63
2022-10-25T18:16:17.017Z,22.17
2022-10-25T18:19:01.564Z,21.75
2022-10-25T18:21:49.446Z,20.63
2022-10-25T18:24:33.457Z,19.80
2022-10-25T18:27:22.442Z,23.02
2022-10-25T18:30:20.699Z,20.20
2022-10-25T18:33:09.122Z,18.85
2022-10-25T18:35:47.455Z,24.98
2022-10-25T18:38:29.034Z,21.83
2022-10-25T18:41:18.034Z,21.50
2022-10-25T18:43:57.989Z,19.92
2022-10-25T18:46:47.503Z,21.63
2022-10-25T18:49:22.049Z,23.20
2022-10-25T18:52:06.106Z,19.70
2022-10-25T18:54:52.686Z,19.17
2022-10-25T18:57:33.138Z,21.92
2022-10-25T19:00:16.392Z,23.25
2022-10-25T19:03:13.856Z,20.17
2022-10-25T19:06:00.039Z,20.50
2022-10-25T19:08:57.025Z,20.30
2022-10-25T19:11:32.795Z,23.45
2022-10-25T19:14:23.065Z,28.25
2022-10-25T19:17:07.073Z,26.90
2022-10-25T19:20:02.773Z,41.10
2022-10-25T19:22:48.467Z,36.55
2022-10-25T19:25:30.317Z,34.42
2022-10-25T19:28:23.805Z,32.95
2022-10-25T19:31:15.247Z,30.17
2022-10-25T19:34:01.856Z,30.45
2022-10-25T19:36:41.140Z,27.92
2022-10-25T19:39:26.801Z,29.05
2022-10-25T19:42:19.288Z,29.25
2022-10-25T19:45:12.468Z,37.22
2022-10-25T19:47:57.118Z,36.33
2022-10-25T19:50:38.838Z,36.72
2022-10-25T19:53:25.221Z,37.20
2022-10-25T19:56:12.447Z,39.95
2022-10-25T19:58:48.157Z,41.95
2022-10-25T20:01:35.720Z,39.08
2022-10-25T20:04:16.992Z,31.98
2022-10-25T20:06:53.036Z,28.42
2022-10-25T20:09:33.436Z,29.42
2022-10-25T20:12:08.970Z,27.63
2022-10-25T20:14:52.646Z,28.30
2022-10-25T20:17:27.018Z,26.05
2022-10-25T20:20:05.441Z,21.98
2022-10-25T20:22:46.633Z,28.20
2022-10-25T20:25:28.738Z,28.08
2022-10-25T20:28:12.880Z,30.55
2022-10-25T20:30:47.580Z,29.58
2022-10-25T20:33:28.342Z,24.85
2022-10-25T20:36:15.833Z,23.35
2022-10-25T20:39:01.351Z,22.42
2022-10-25T20:41:45.968Z,29.10
2022-10-25T20:44:33.955Z,24.02
2022-10-25T20:47:18.433Z,24.77
2022-10-25T20:49:57.607Z,26.40
2022-10-25T20:52:39.793Z,25.15
2022-10-25T20:55:41.041Z,23.38
2022-10-25T20:58:33.020Z,21.75
2022-10-25T21:01:16.173Z,24.13
2022-10-25T21:04:03.045Z,22.67
2022-10-25T21:06:53.902Z,24.55
2022-10-25T21:09:28.525Z,25.10
2022-10-25T21:12:07.063Z,25.88
2022-10-25T21:14:50.832Z,25.27
2022-10-25T21:17:48.008Z,24.90
2022-10-25T21:20:29.371Z,21.70
2022-10-25T21:23:08.306Z,22.58
2022-10-25T21:25:53.368Z,22.88
2022-10-25T21:28:41.606Z,20.17
2022-10-25T21:31:25.868Z,22.45
2022-10-25T21:34:06.701Z,24.10
2022-10-25T21:36:56.008Z,29.58
2022-10-25T21:39:33.644Z,30.17
2022-10-25T21:42:22.990Z,28.80
2022-10-25T21:45:15.450Z,26.23
2022-10-25T21:48:01.953Z,28.55
2022-10-25T21:51:01.546Z,31.88
2022-10-25T21:53:47.428Z,30.88
2022-10-25T21:56:42.091Z,26.45
2022-10-25T21:59:32.107Z,27.45
2022-10-25T22:02:23.706Z,28.30
2022-10-25T22:05:09.091Z,28.25
2022-10-25T22:07:52.099Z,28.45
2022-10-25T22:10:39.746Z,27.85
2022-10-25T22:13:17.049Z,26.13
2022-10-25T22:16:06.627Z,29.52
2022-10-25T22:18:48.115Z,28.15
2022-10-25T22:21:26.952Z,28.27
2022-10-25T22:24:17.923Z,32.60
2022-10-25T22:27:03.228Z,33.47
2022-10-25T22:29:56.794Z,29.17
2022-10-25T22:32:37.855Z,33.42
2022-10-25T22:35:26.017Z,33.63
2022-10-25T22:38:04.992Z,39.25
2022-10-25T22:41:04.959Z,38.17
2022-10-25T22:43:48.782Z,35.50
2022-10-25T22:46:33.416Z,35.85
2022-10-25T22:49:22.023Z,36.70
2022-10-25T22:52:02.615Z,34.05
2022-10-25T22:54:45.996Z,35.80
2022-10-25T22:57:35.123Z,40.72
2022-10-25T23:00:14.297Z,35.35
2022-10-25T23:02:53.557Z,36.70
2022-10-25T23:05:40.037Z,37.78
2022-10-25T23:08:24.739Z,37.22
2022-10-25T23:11:15.012Z,35.50
2022-10-25T23:13:58.440Z,33.05
2022-10-25T23:16:43.655Z,35.53
2022-10-25T23:19:19.917Z,37.17
2022-10-25T23:21:54.881Z,37.30
2022-10-25T23:24:40.777Z,36.65
2022-10-25T23:27:30.349Z,34.88
2022-10-25T23:30:17.921Z,36.72
2022-10-25T23:33:04.635Z,36.90
2022-10-25T23:35:51.991Z,37.55
2022-10-25T23:38:37.878Z,36.45
2022-10-25T23:41:20.062Z,38.67
2022-10-25T23:44:09.309Z,37.08
2022-10-25T23:46:52.889Z,37.35
2022-10-25T23:49:29.006Z,36.05
2022-10-25T23:52:18.985Z,37.20
2022-10-25T23:54:53.257Z,40.50
2022-10-25T23:57:29.968Z,38.85
